sensor_id;sensor_type;location;lat;lon;timestamp;pressure;altitude;pressure_sealevel;temperature;humidity
51807;BME280;37865;51.304;9.536;2023-06-04T00:02:00;100398.41;;;7.82;80.37
51807;BME280;37865;51.304;9.536;2023-06-04T00:04:26;100399.66;;;7.79;81.28
51807;BME280;37865;51.304;9.536;2023-06-04T00:06:51;100399.53;;;7.74;81.35
51807;BME280;37865;51.304;9.536;2023-06-04T00:09:16;100397.69;;;7.68;81.44
51807;BME280;37865;51.304;9.536;2023-06-04T00:11:42;100396.66;;;7.63;81.58
51807;BME280;37865;51.304;9.536;2023-06-04T00:14:07;100393.56;;;7.59;82.16
51807;BME280;37865;51.304;9.536;2023-06-04T00:16:33;100398.63;;;7.56;82.09
51807;BME280;37865;51.304;9.536;2023-06-04T00:19:01;100394.88;;;7.50;82.47
51807;BME280;37865;51.304;9.536;2023-06-04T00:21:26;100398.91;;;7.48;82.67
51807;BME280;37865;51.304;9.536;2023-06-04T00:23:51;100389.72;;;7.42;83.09
51807;BME280;37865;51.304;9.536;2023-06-04T00:26:17;100392.28;;;7.37;83.02
51807;BME280;37865;51.304;9.536;2023-06-04T00:28:42;100393.16;;;7.31;83.51
51807;BME280;37865;51.304;9.536;2023-06-04T00:31:07;100393.41;;;7.23;84.29
51807;BME280;37865;51.304;9.536;2023-06-04T00:33:32;100394.69;;;7.20;84.77
51807;BME280;37865;51.304;9.536;2023-06-04T00:36:00;100403.09;;;7.12;85.01
51807;BME280;37865;51.304;9.536;2023-06-04T00:38:25;100387.66;;;7.06;85.33
51807;BME280;37865;51.304;9.536;2023-06-04T00:40:50;100388.53;;;7.00;85.49
51807;BME280;37865;51.304;9.536;2023-06-04T00:43:16;100390.22;;;6.95;85.31
51807;BME280;37865;51.304;9.536;2023-06-04T00:45:41;100392.97;;;6.88;85.49
51807;BME280;37865;51.304;9.536;2023-06-04T00:48:07;100391.97;;;6.83;86.61
51807;BME280;37865;51.304;9.536;2023-06-04T00:50:32;100381.56;;;6.73;86.49
51807;BME280;37865;51.304;9.536;2023-06-04T00:52:58;100382.41;;;6.67;86.52
51807;BME280;37865;51.304;9.536;2023-06-04T00:55:23;100395.34;;;6.65;86.92
51807;BME280;37865;51.304;9.536;2023-06-04T00:57:49;100389.53;;;6.62;87.50
51807;BME280;37865;51.304;9.536;2023-06-04T01:00:14;100396.66;;;6.56;87.49
51807;BME280;37865;51.304;9.536;2023-06-04T01:02:41;100391.66;;;6.53;87.38
51807;BME280;37865;51.304;9.536;2023-06-04T01:05:16;100396.91;;;6.48;87.89
51807;BME280;37865;51.304;9.536;2023-06-04T01:07:45;100388.16;;;6.39;87.73
51807;BME280;37865;51.304;9.536;2023-06-04T01:10:12;100394.81;;;6.37;88.39
51807;BME280;37865;51.304;9.536;2023-06-04T01:12:43;100392.97;;;6.31;88.43
51807;BME280;37865;51.304;9.536;2023-06-04T01:15:09;100398.38;;;6.31;88.89
51807;BME280;37865;51.304;9.536;2023-06-04T01:17:46;100395.69;;;6.31;89.51
51807;BME280;37865;51.304;9.536;2023-06-04T01:25:33;100396.09;;;6.28;88.95
51807;BME280;37865;51.304;9.536;2023-06-04T01:27:59;100389.22;;;6.25;89.08
51807;BME280;37865;51.304;9.536;2023-06-04T01:30:36;100394.66;;;6.19;89.23
51807;BME280;37865;51.304;9.536;2023-06-04T01:33:09;100392.59;;;6.14;89.44
51807;BME280;37865;51.304;9.536;2023-06-04T01:35:36;100394.69;;;6.06;89.42
51807;BME280;37865;51.304;9.536;2023-06-04T01:38:02;100396.38;;;6.00;89.71
51807;BME280;37865;51.304;9.536;2023-06-04T01:40:27;100397.19;;;5.94;90.14
51807;BME280;37865;51.304;9.536;2023-06-04T01:42:53;100399.25;;;5.92;90.29
51807;BME280;37865;51.304;9.536;2023-06-04T01:45:21;100403.44;;;5.88;90.51
51807;BME280;37865;51.304;9.536;2023-06-04T01:47:47;100395.75;;;5.85;90.81
51807;BME280;37865;51.304;9.536;2023-06-04T01:50:12;100399.88;;;5.81;91.16
51807;BME280;37865;51.304;9.536;2023-06-04T01:52:38;100399.03;;;5.74;91.44
51807;BME280;37865;51.304;9.536;2023-06-04T01:55:05;100408.59;;;5.70;91.33
51807;BME280;37865;51.304;9.536;2023-06-04T01:57:33;100404.03;;;5.64;91.87
51807;BME280;37865;51.304;9.536;2023-06-04T01:59:58;100404.44;;;5.61;91.96
51807;BME280;37865;51.304;9.536;2023-06-04T02:02:23;100400.28;;;5.58;92.08
51807;BME280;37865;51.304;9.536;2023-06-04T02:04:49;100395.50;;;5.54;92.33
51807;BME280;37865;51.304;9.536;2023-06-04T02:07:17;100408.19;;;5.53;92.33
51807;BME280;37865;51.304;9.536;2023-06-04T02:09:46;100399.66;;;5.50;93.19
51807;BME280;37865;51.304;9.536;2023-06-04T02:12:11;100400.28;;;5.45;92.97
51807;BME280;37865;51.304;9.536;2023-06-04T02:14:37;100411.69;;;5.41;93.31
51807;BME280;37865;51.304;9.536;2023-06-04T02:17:03;100410.06;;;5.40;93.85
51807;BME280;37865;51.304;9.536;2023-06-04T02:19:29;100403.56;;;5.34;93.96
51807;BME280;37865;51.304;9.536;2023-06-04T02:21:55;100395.91;;;5.31;94.07
51807;BME280;37865;51.304;9.536;2023-06-04T02:24:21;100408.16;;;5.27;94.15
51807;BME280;37865;51.304;9.536;2023-06-04T02:26:46;100400.66;;;5.23;94.91
51807;BME280;37865;51.304;9.536;2023-06-04T02:29:12;100403.56;;;5.21;95.06
51807;BME280;37865;51.304;9.536;2023-06-04T02:31:37;100406.06;;;5.23;94.83
51807;BME280;37865;51.304;9.536;2023-06-04T02:34:03;100400.63;;;5.16;94.75
51807;BME280;37865;51.304;9.536;2023-06-04T02:36:29;100395.41;;;5.08;94.63
51807;BME280;37865;51.304;9.536;2023-06-04T02:38:54;100402.06;;;5.06;94.80
51807;BME280;37865;51.304;9.536;2023-06-04T02:41:21;100396.63;;;4.99;95.13
51807;BME280;37865;51.304;9.536;2023-06-04T02:43:46;100404.53;;;4.94;95.26
51807;BME280;37865;51.304;9.536;2023-06-04T02:46:11;100414.28;;;4.95;95.75
51807;BME280;37865;51.304;9.536;2023-06-04T02:48:37;100406.78;;;4.90;96.08
51807;BME280;37865;51.304;9.536;2023-06-04T02:51:02;100404.72;;;4.86;95.58
51807;BME280;37865;51.304;9.536;2023-06-04T02:53:27;100411.75;;;4.80;95.47
51807;BME280;37865;51.304;9.536;2023-06-04T02:55:53;100414.66;;;4.79;95.89
51807;BME280;37865;51.304;9.536;2023-06-04T02:58:18;100406.56;;;4.79;96.34
51807;BME280;37865;51.304;9.536;2023-06-04T03:00:44;100420.69;;;4.81;96.49
51807;BME280;37865;51.304;9.536;2023-06-04T03:03:10;100416.50;;;4.78;96.03
51807;BME280;37865;51.304;9.536;2023-06-04T03:05:36;100422.75;;;4.79;96.59
51807;BME280;37865;51.304;9.536;2023-06-04T03:08:02;100428.16;;;4.79;96.53
51807;BME280;37865;51.304;9.536;2023-06-04T03:10:28;100424.41;;;4.73;96.67
51807;BME280;37865;51.304;9.536;2023-06-04T03:12:54;100427.91;;;4.67;96.39
51807;BME280;37865;51.304;9.536;2023-06-04T03:15:19;100417.28;;;4.66;96.82
51807;BME280;37865;51.304;9.536;2023-06-04T03:17:45;100432.66;;;4.65;97.25
51807;BME280;37865;51.304;9.536;2023-06-04T03:20:10;100423.53;;;4.66;97.09
51807;BME280;37865;51.304;9.536;2023-06-04T03:22:36;100429.78;;;4.67;97.94
51807;BME280;37865;51.304;9.536;2023-06-04T03:25:02;100420.00;;;4.66;97.78
51807;BME280;37865;51.304;9.536;2023-06-04T03:27:29;100420.84;;;4.66;98.25
51807;BME280;37865;51.304;9.536;2023-06-04T03:29:55;100432.88;;;4.64;98.17
51807;BME280;37865;51.304;9.536;2023-06-04T03:32:20;100434.72;;;4.63;98.31
51807;BME280;37865;51.304;9.536;2023-06-04T03:34:45;100432.03;;;4.63;99.10
51807;BME280;37865;51.304;9.536;2023-06-04T03:37:11;100437.66;;;4.68;99.23
51807;BME280;37865;51.304;9.536;2023-06-04T03:39:36;100435.22;;;4.80;99.29
51807;BME280;37865;51.304;9.536;2023-06-04T03:42:01;100436.50;;;4.90;98.99
51807;BME280;37865;51.304;9.536;2023-06-04T03:44:27;100438.41;;;4.97;98.77
51807;BME280;37865;51.304;9.536;2023-06-04T03:46:52;100440.09;;;5.04;98.46
51807;BME280;37865;51.304;9.536;2023-06-04T03:49:17;100443.22;;;5.08;98.11
51807;BME280;37865;51.304;9.536;2023-06-04T03:51:43;100442.00;;;5.10;98.10
51807;BME280;37865;51.304;9.536;2023-06-04T03:54:09;100442.41;;;5.14;97.98
51807;BME280;37865;51.304;9.536;2023-06-04T03:56:35;100437.00;;;5.14;97.41
51807;BME280;37865;51.304;9.536;2023-06-04T03:59:00;100434.75;;;5.17;97.49
51807;BME280;37865;51.304;9.536;2023-06-04T04:01:25;100429.97;;;5.19;97.50
51807;BME280;37865;51.304;9.536;2023-06-04T04:03:52;100433.31;;;5.21;97.63
51807;BME280;37865;51.304;9.536;2023-06-04T04:06:18;100434.75;;;5.24;97.41
51807;BME280;37865;51.304;9.536;2023-06-04T04:08:44;100437.91;;;5.27;97.54
51807;BME280;37865;51.304;9.536;2023-06-04T04:11:13;100436.44;;;5.31;97.60
51807;BME280;37865;51.304;9.536;2023-06-04T04:13:38;100433.31;;;5.34;97.15
51807;BME280;37865;51.304;9.536;2023-06-04T04:16:03;100438.97;;;5.39;97.16
51807;BME280;37865;51.304;9.536;2023-06-04T04:18:32;100430.63;;;5.41;97.04
51807;BME280;37865;51.304;9.536;2023-06-04T04:20:58;100440.44;;;5.48;96.72
51807;BME280;37865;51.304;9.536;2023-06-04T04:23:24;100439.81;;;5.53;96.55
51807;BME280;37865;51.304;9.536;2023-06-04T04:25:49;100437.31;;;5.58;96.29
51807;BME280;37865;51.304;9.536;2023-06-04T04:28:15;100434.19;;;5.67;96.82
51807;BME280;37865;51.304;9.536;2023-06-04T04:30:42;100424.84;;;5.77;96.44
51807;BME280;37865;51.304;9.536;2023-06-04T04:33:09;100432.78;;;5.85;96.21
51807;BME280;37865;51.304;9.536;2023-06-04T04:35:35;100428.63;;;5.95;95.93
51807;BME280;37865;51.304;9.536;2023-06-04T04:38:01;100431.75;;;6.05;95.67
51807;BME280;37865;51.304;9.536;2023-06-04T04:40:30;100436.94;;;6.13;95.30
51807;BME280;37865;51.304;9.536;2023-06-04T04:42:56;100432.13;;;6.22;94.75
51807;BME280;37865;51.304;9.536;2023-06-04T04:45:21;100432.53;;;6.32;94.20
51807;BME280;37865;51.304;9.536;2023-06-04T04:47:47;100432.75;;;6.43;93.74
51807;BME280;37865;51.304;9.536;2023-06-04T04:50:12;100439.38;;;6.54;93.36
51807;BME280;37865;51.304;9.536;2023-06-04T04:52:38;100443.50;;;6.63;93.29
51807;BME280;37865;51.304;9.536;2023-06-04T04:55:03;100432.66;;;6.70;92.79
51807;BME280;37865;51.304;9.536;2023-06-04T04:57:29;100439.06;;;6.82;91.74
51807;BME280;37865;51.304;9.536;2023-06-04T04:59:54;100443.22;;;6.91;91.77
51807;BME280;37865;51.304;9.536;2023-06-04T05:02:20;100435.84;;;7.04;91.20
51807;BME280;37865;51.304;9.536;2023-06-04T05:04:45;100448.09;;;7.20;90.46
51807;BME280;37865;51.304;9.536;2023-06-04T05:07:10;100449.69;;;7.34;89.95
51807;BME280;37865;51.304;9.536;2023-06-04T05:09:36;100452.09;;;7.49;89.52
51807;BME280;37865;51.304;9.536;2023-06-04T05:12:01;100439.91;;;7.64;88.45
51807;BME280;37865;51.304;9.536;2023-06-04T05:14:27;100440.41;;;7.79;88.04
51807;BME280;37865;51.304;9.536;2023-06-04T05:16:53;100447.41;;;7.93;87.11
51807;BME280;37865;51.304;9.536;2023-06-04T05:19:21;100444.97;;;8.10;86.38
51807;BME280;37865;51.304;9.536;2023-06-04T05:21:48;100453.41;;;8.27;85.59
51807;BME280;37865;51.304;9.536;2023-06-04T05:24:14;100445.28;;;8.45;84.77
51807;BME280;37865;51.304;9.536;2023-06-04T05:26:40;100443.84;;;8.60;83.18
51807;BME280;37865;51.304;9.536;2023-06-04T05:29:05;100450.97;;;8.79;81.97
51807;BME280;37865;51.304;9.536;2023-06-04T05:31:30;100450.75;;;8.99;80.78
51807;BME280;37865;51.304;9.536;2023-06-04T05:33:59;100446.47;;;9.21;79.27
51807;BME280;37865;51.304;9.536;2023-06-04T05:36:27;100444.69;;;9.45;77.81
51807;BME280;37865;51.304;9.536;2023-06-04T05:38:52;100447.50;;;9.68;76.69
51807;BME280;37865;51.304;9.536;2023-06-04T05:41:23;100448.00;;;9.88;75.66
51807;BME280;37865;51.304;9.536;2023-06-04T05:43:50;100450.66;;;10.06;74.12
51807;BME280;37865;51.304;9.536;2023-06-04T05:46:15;100444.78;;;10.21;73.36
51807;BME280;37865;51.304;9.536;2023-06-04T05:48:40;100444.06;;;10.37;72.76
51807;BME280;37865;51.304;9.536;2023-06-04T05:51:06;100450.97;;;10.51;71.84
51807;BME280;37865;51.304;9.536;2023-06-04T05:53:32;100446.91;;;10.65;70.81
51807;BME280;37865;51.304;9.536;2023-06-04T05:55:57;100456.25;;;10.81;69.86
51807;BME280;37865;51.304;9.536;2023-06-04T05:58:22;100453.38;;;10.99;69.20
51807;BME280;37865;51.304;9.536;2023-06-04T06:00:48;100450.56;;;11.22;68.82
51807;BME280;37865;51.304;9.536;2023-06-04T06:03:15;100453.06;;;11.52;67.76
51807;BME280;37865;51.304;9.536;2023-06-04T06:05:42;100453.09;;;11.80;66.89
51807;BME280;37865;51.304;9.536;2023-06-04T06:08:07;100457.44;;;12.09;65.93
51807;BME280;37865;51.304;9.536;2023-06-04T06:10:33;100452.94;;;12.36;65.03
51807;BME280;37865;51.304;9.536;2023-06-04T06:12:58;100458.28;;;12.64;63.87
51807;BME280;37865;51.304;9.536;2023-06-04T06:15:25;100453.19;;;12.89;63.00
51807;BME280;37865;51.304;9.536;2023-06-04T06:17:51;100449.41;;;13.12;61.99
51807;BME280;37865;51.304;9.536;2023-06-04T06:20:17;100456.25;;;13.36;60.99
51807;BME280;37865;51.304;9.536;2023-06-04T06:22:43;100458.16;;;13.57;60.41
51807;BME280;37865;51.304;9.536;2023-06-04T06:25:09;100465.97;;;13.70;59.34
51807;BME280;37865;51.304;9.536;2023-06-04T06:27:34;100463.97;;;13.88;59.28
51807;BME280;37865;51.304;9.536;2023-06-04T06:30:00;100460.56;;;14.07;58.36
51807;BME280;37865;51.304;9.536;2023-06-04T06:32:25;100458.25;;;14.26;57.76
51807;BME280;37865;51.304;9.536;2023-06-04T06:34:52;100459.81;;;14.43;56.95
51807;BME280;37865;51.304;9.536;2023-06-04T06:37:17;100460.72;;;14.59;56.50
51807;BME280;37865;51.304;9.536;2023-06-04T06:39:43;100464.69;;;14.78;55.95
51807;BME280;37865;51.304;9.536;2023-06-04T06:42:08;100467.31;;;15.00;55.56
51807;BME280;37865;51.304;9.536;2023-06-04T06:44:33;100478.09;;;15.21;54.91
51807;BME280;37865;51.304;9.536;2023-06-04T06:46:59;100468.31;;;15.41;53.61
51807;BME280;37865;51.304;9.536;2023-06-04T06:49:24;100471.41;;;15.59;52.89
51807;BME280;37865;51.304;9.536;2023-06-04T06:51:49;100473.97;;;15.81;52.17
51807;BME280;37865;51.304;9.536;2023-06-04T06:54:15;100477.84;;;16.05;51.73
51807;BME280;37865;51.304;9.536;2023-06-04T06:56:46;100475.38;;;16.24;51.42
51807;BME280;37865;51.304;9.536;2023-06-04T06:59:13;100473.16;;;16.46;50.25
51807;BME280;37865;51.304;9.536;2023-06-04T07:01:38;100465.72;;;16.66;49.41
51807;BME280;37865;51.304;9.536;2023-06-04T07:04:04;100466.25;;;16.83;48.64
51807;BME280;37865;51.304;9.536;2023-06-04T07:06:29;100478.34;;;17.08;47.76
51807;BME280;37865;51.304;9.536;2023-06-04T07:08:54;100479.03;;;17.33;47.21
51807;BME280;37865;51.304;9.536;2023-06-04T07:11:20;100477.88;;;17.54;46.43
51807;BME280;37865;51.304;9.536;2023-06-04T07:13:47;100473.38;;;17.74;45.78
51807;BME280;37865;51.304;9.536;2023-06-04T07:16:12;100476.31;;;17.87;45.32
51807;BME280;37865;51.304;9.536;2023-06-04T07:18:38;100485.06;;;17.99;45.39
51807;BME280;37865;51.304;9.536;2023-06-04T07:21:03;100469.34;;;18.00;44.72
51807;BME280;37865;51.304;9.536;2023-06-04T07:23:28;100482.50;;;18.13;44.66
51807;BME280;37865;51.304;9.536;2023-06-04T07:25:54;100472.66;;;18.35;44.54
51807;BME280;37865;51.304;9.536;2023-06-04T07:28:20;100470.00;;;18.59;44.12
51807;BME280;37865;51.304;9.536;2023-06-04T07:30:46;100471.50;;;18.75;43.21
51807;BME280;37865;51.304;9.536;2023-06-04T07:33:11;100465.53;;;18.92;42.63
51807;BME280;37865;51.304;9.536;2023-06-04T07:35:36;100468.00;;;19.17;42.82
51807;BME280;37865;51.304;9.536;2023-06-04T07:38:02;100461.38;;;19.42;42.27
51807;BME280;37865;51.304;9.536;2023-06-04T07:40:27;100462.50;;;19.59;41.94
51807;BME280;37865;51.304;9.536;2023-06-04T07:42:53;100464.75;;;19.76;41.66
51807;BME280;37865;51.304;9.536;2023-06-04T07:45:18;100471.13;;;19.95;41.49
51807;BME280;37865;51.304;9.536;2023-06-04T07:47:43;100472.53;;;20.11;40.70
51807;BME280;37865;51.304;9.536;2023-06-04T07:50:09;100476.81;;;20.22;39.88
51807;BME280;37865;51.304;9.536;2023-06-04T07:52:35;100470.44;;;20.40;39.86
51807;BME280;37865;51.304;9.536;2023-06-04T07:55:00;100472.03;;;20.60;40.32
51807;BME280;37865;51.304;9.536;2023-06-04T07:57:26;100467.38;;;20.88;39.75
51807;BME280;37865;51.304;9.536;2023-06-04T07:59:51;100463.94;;;21.09;39.04
51807;BME280;37865;51.304;9.536;2023-06-04T08:02:17;100462.81;;;21.10;38.33
51807;BME280;37865;51.304;9.536;2023-06-04T08:04:42;100458.41;;;21.23;37.86
51807;BME280;37865;51.304;9.536;2023-06-04T08:07:08;100464.44;;;21.38;37.48
51807;BME280;37865;51.304;9.536;2023-06-04T08:09:33;100452.72;;;21.55;36.64
51807;BME280;37865;51.304;9.536;2023-06-04T08:11:59;100451.69;;;21.65;36.95
51807;BME280;37865;51.304;9.536;2023-06-04T08:14:25;100447.31;;;21.86;36.71
51807;BME280;37865;51.304;9.536;2023-06-04T08:16:53;100454.75;;;22.12;35.71
51807;BME280;37865;51.304;9.536;2023-06-04T08:19:18;100446.31;;;22.39;34.30
51807;BME280;37865;51.304;9.536;2023-06-04T08:21:43;100451.41;;;22.46;33.99
51807;BME280;37865;51.304;9.536;2023-06-04T08:24:10;100453.88;;;22.48;34.09
51807;BME280;37865;51.304;9.536;2023-06-04T08:26:35;100451.09;;;22.48;34.32
51807;BME280;37865;51.304;9.536;2023-06-04T08:29:02;100455.16;;;22.64;34.27
51807;BME280;37865;51.304;9.536;2023-06-04T08:31:29;100457.06;;;22.85;32.22
51807;BME280;37865;51.304;9.536;2023-06-04T08:33:54;100450.25;;;22.91;30.12
51807;BME280;37865;51.304;9.536;2023-06-04T08:36:20;100453.53;;;23.02;28.52
51807;BME280;37865;51.304;9.536;2023-06-04T08:38:45;100455.91;;;23.17;28.68
51807;BME280;37865;51.304;9.536;2023-06-04T08:41:34;100451.03;;;23.31;27.79
51807;BME280;37865;51.304;9.536;2023-06-04T08:44:00;100452.25;;;23.39;27.99
51807;BME280;37865;51.304;9.536;2023-06-04T08:46:28;100460.16;;;23.54;27.00
51807;BME280;37865;51.304;9.536;2023-06-04T08:48:56;100455.28;;;23.68;27.32
51807;BME280;37865;51.304;9.536;2023-06-04T08:51:24;100461.34;;;23.70;26.96
51807;BME280;37865;51.304;9.536;2023-06-04T08:53:50;100469.84;;;23.73;26.43
51807;BME280;37865;51.304;9.536;2023-06-04T08:56:19;100459.38;;;23.70;26.67
51807;BME280;37865;51.304;9.536;2023-06-04T08:58:46;100464.13;;;23.70;26.63
51807;BME280;37865;51.304;9.536;2023-06-04T09:01:13;100465.75;;;23.79;25.94
51807;BME280;37865;51.304;9.536;2023-06-04T09:03:39;100466.22;;;23.73;26.11
51807;BME280;37865;51.304;9.536;2023-06-04T09:06:06;100468.88;;;23.78;26.14
51807;BME280;37865;51.304;9.536;2023-06-04T09:08:35;100463.78;;;23.71;25.53
51807;BME280;37865;51.304;9.536;2023-06-04T09:11:08;100461.16;;;23.75;26.68
51807;BME280;37865;51.304;9.536;2023-06-04T09:13:35;100467.44;;;23.89;26.20
51807;BME280;37865;51.304;9.536;2023-06-04T09:16:02;100458.44;;;24.09;25.89
51807;BME280;37865;51.304;9.536;2023-06-04T09:18:28;100467.13;;;24.25;26.48
51807;BME280;37865;51.304;9.536;2023-06-04T09:21:06;100467.59;;;24.44;25.86
51807;BME280;37865;51.304;9.536;2023-06-04T09:23:44;100472.34;;;24.52;25.80
51807;BME280;37865;51.304;9.536;2023-06-04T09:26:10;100475.31;;;24.55;25.34
51807;BME280;37865;51.304;9.536;2023-06-04T09:28:43;100470.53;;;24.56;25.76
51807;BME280;37865;51.304;9.536;2023-06-04T09:31:15;100472.34;;;24.60;25.44
51807;BME280;37865;51.304;9.536;2023-06-04T09:33:42;100456.44;;;24.61;25.32
51807;BME280;37865;51.304;9.536;2023-06-04T09:36:08;100451.31;;;24.71;25.24
51807;BME280;37865;51.304;9.536;2023-06-04T09:38:34;100456.06;;;24.88;25.59
51807;BME280;37865;51.304;9.536;2023-06-04T09:41:00;100456.34;;;24.95;25.08
51807;BME280;37865;51.304;9.536;2023-06-04T09:43:26;100454.75;;;24.86;25.44
51807;BME280;37865;51.304;9.536;2023-06-04T09:45:51;100461.28;;;24.98;25.64
51807;BME280;37865;51.304;9.536;2023-06-04T09:48:21;100448.09;;;25.16;25.69
51807;BME280;37865;51.304;9.536;2023-06-04T09:50:47;100448.50;;;25.26;25.19
51807;BME280;37865;51.304;9.536;2023-06-04T09:53:20;100454.38;;;25.33;25.36
51807;BME280;37865;51.304;9.536;2023-06-04T09:55:57;100445.81;;;25.47;25.46
51807;BME280;37865;51.304;9.536;2023-06-04T09:58:25;100444.53;;;25.44;25.59
51807;BME280;37865;51.304;9.536;2023-06-04T10:00:52;100445.81;;;25.47;25.83
51807;BME280;37865;51.304;9.536;2023-06-04T10:03:20;100432.47;;;25.52;25.88
51807;BME280;37865;51.304;9.536;2023-06-04T10:05:52;100434.44;;;25.52;26.04
51807;BME280;37865;51.304;9.536;2023-06-04T10:08:18;100431.72;;;25.64;26.64
51807;BME280;37865;51.304;9.536;2023-06-04T10:10:47;100448.19;;;25.86;26.77
51807;BME280;37865;51.304;9.536;2023-06-04T10:13:18;100440.34;;;26.00;25.59
51807;BME280;37865;51.304;9.536;2023-06-04T10:15:44;100436.53;;;26.05;26.51
51807;BME280;37865;51.304;9.536;2023-06-04T10:18:10;100434.41;;;26.22;25.92
51807;BME280;37865;51.304;9.536;2023-06-04T10:20:36;100443.97;;;26.42;25.75
51807;BME280;37865;51.304;9.536;2023-06-04T10:23:02;100438.03;;;26.56;25.67
51807;BME280;37865;51.304;9.536;2023-06-04T10:25:29;100436.53;;;26.58;25.54
51807;BME280;37865;51.304;9.536;2023-06-04T10:27:55;100436.75;;;26.53;25.67
51807;BME280;37865;51.304;9.536;2023-06-04T10:30:21;100429.34;;;26.69;25.92
51807;BME280;37865;51.304;9.536;2023-06-04T10:32:47;100428.81;;;26.76;24.93
51807;BME280;37865;51.304;9.536;2023-06-04T10:35:13;100433.34;;;26.80;24.70
51807;BME280;37865;51.304;9.536;2023-06-04T10:37:39;100425.44;;;26.82;24.99
51807;BME280;37865;51.304;9.536;2023-06-04T10:40:05;100426.88;;;27.00;24.40
51807;BME280;37865;51.304;9.536;2023-06-04T10:42:42;100420.56;;;27.03;24.28
51807;BME280;37865;51.304;9.536;2023-06-04T10:45:08;100422.06;;;27.01;24.11
51807;BME280;37865;51.304;9.536;2023-06-04T10:47:35;100422.31;;;27.08;24.32
51807;BME280;37865;51.304;9.536;2023-06-04T10:50:13;100422.47;;;27.24;24.39
51807;BME280;37865;51.304;9.536;2023-06-04T10:52:51;100428.91;;;27.48;24.00
51807;BME280;37865;51.304;9.536;2023-06-04T10:55:16;100419.44;;;27.65;23.71
51807;BME280;37865;51.304;9.536;2023-06-04T10:57:56;100422.88;;;27.86;22.73
51807;BME280;37865;51.304;9.536;2023-06-04T11:00:33;100418.22;;;27.78;23.52
51807;BME280;37865;51.304;9.536;2023-06-04T11:02:59;100414.81;;;27.97;23.43
51807;BME280;37865;51.304;9.536;2023-06-04T11:05:54;100419.25;;;27.98;23.54
51807;BME280;37865;51.304;9.536;2023-06-04T11:08:27;100421.31;;;28.13;23.51
51807;BME280;37865;51.304;9.536;2023-06-04T11:10:55;100421.25;;;28.25;23.55
51807;BME280;37865;51.304;9.536;2023-06-04T11:13:24;100417.94;;;28.35;22.80
51807;BME280;37865;51.304;9.536;2023-06-04T11:15:53;100415.50;;;28.33;22.79
51807;BME280;37865;51.304;9.536;2023-06-04T11:18:21;100416.66;;;28.32;22.20
51807;BME280;37865;51.304;9.536;2023-06-04T11:20:49;100411.63;;;28.38;22.97
51807;BME280;37865;51.304;9.536;2023-06-04T11:23:15;100408.78;;;28.66;22.33
51807;BME280;37865;51.304;9.536;2023-06-04T11:25:43;100399.50;;;28.93;21.89
51807;BME280;37865;51.304;9.536;2023-06-04T11:28:16;100409.41;;;29.18;21.66
51807;BME280;37865;51.304;9.536;2023-06-04T11:30:43;100395.09;;;29.23;21.18
51807;BME280;37865;51.304;9.536;2023-06-04T11:33:08;100400.22;;;29.36;21.31
51807;BME280;37865;51.304;9.536;2023-06-04T11:35:41;100399.63;;;29.62;21.30
51807;BME280;37865;51.304;9.536;2023-06-04T11:38:07;100398.06;;;29.80;20.97
51807;BME280;37865;51.304;9.536;2023-06-04T11:40:33;100383.09;;;29.61;20.66
51807;BME280;37865;51.304;9.536;2023-06-04T11:42:59;100394.03;;;29.47;21.33
51807;BME280;37865;51.304;9.536;2023-06-04T11:45:24;100404.19;;;29.51;21.65
51807;BME280;37865;51.304;9.536;2023-06-04T11:47:54;100389.31;;;29.51;20.36
51807;BME280;37865;51.304;9.536;2023-06-04T11:50:27;100385.19;;;29.29;21.66
51807;BME280;37865;51.304;9.536;2023-06-04T11:52:53;100382.94;;;29.19;20.87
51807;BME280;37865;51.304;9.536;2023-06-04T11:55:19;100387.44;;;29.39;21.14
51807;BME280;37865;51.304;9.536;2023-06-04T11:57:48;100394.28;;;29.73;20.67
51807;BME280;37865;51.304;9.536;2023-06-04T12:00:15;100380.53;;;29.87;20.08
51807;BME280;37865;51.304;9.536;2023-06-04T12:02:54;100380.97;;;29.89;20.58
51807;BME280;37865;51.304;9.536;2023-06-04T12:05:22;100381.88;;;30.12;20.98
51807;BME280;37865;51.304;9.536;2023-06-04T12:07:50;100383.19;;;30.18;19.90
51807;BME280;37865;51.304;9.536;2023-06-04T12:10:19;100383.06;;;30.30;20.60
51807;BME280;37865;51.304;9.536;2023-06-04T12:12:46;100392.38;;;30.53;20.05
51807;BME280;37865;51.304;9.536;2023-06-04T12:15:12;100384.88;;;30.83;19.27
51807;BME280;37865;51.304;9.536;2023-06-04T12:17:53;100381.91;;;30.96;19.05
51807;BME280;37865;51.304;9.536;2023-06-04T12:20:32;100380.56;;;30.89;18.89
51807;BME280;37865;51.304;9.536;2023-06-04T12:22:57;100370.34;;;31.04;18.67
51807;BME280;37865;51.304;9.536;2023-06-04T12:25:24;100383.16;;;30.56;18.73
51807;BME280;37865;51.304;9.536;2023-06-04T12:27:51;100370.72;;;30.80;18.44
51807;BME280;37865;51.304;9.536;2023-06-04T12:30:16;100364.63;;;31.23;18.47
51807;BME280;37865;51.304;9.536;2023-06-04T12:32:42;100377.28;;;31.33;19.07
51807;BME280;37865;51.304;9.536;2023-06-04T12:35:08;100371.06;;;31.46;19.41
51807;BME280;37865;51.304;9.536;2023-06-04T12:37:34;100361.34;;;31.70;18.83
51807;BME280;37865;51.304;9.536;2023-06-04T12:39:59;100378.69;;;32.02;18.23
51807;BME280;37865;51.304;9.536;2023-06-04T12:42:25;100373.00;;;32.28;17.25
51807;BME280;37865;51.304;9.536;2023-06-04T12:44:50;100359.75;;;32.35;16.63
51807;BME280;37865;51.304;9.536;2023-06-04T12:47:16;100353.28;;;31.98;17.50
51807;BME280;37865;51.304;9.536;2023-06-04T12:49:42;100362.13;;;31.97;17.50
51807;BME280;37865;51.304;9.536;2023-06-04T12:52:08;100357.91;;;32.13;17.26
51807;BME280;37865;51.304;9.536;2023-06-04T12:54:33;100366.31;;;32.43;17.14
51807;BME280;37865;51.304;9.536;2023-06-04T12:56:59;100367.84;;;32.70;16.66
51807;BME280;37865;51.304;9.536;2023-06-04T12:59:25;100364.06;;;32.99;16.84